createdAt,value
2018-03-23T00:00:29.702Z,71.80
2018-03-23T00:01:35.444Z,60.60
2018-03-23T00:02:41.792Z,64.75
2018-03-23T00:03:47.093Z,75.45
2018-03-23T00:04:53.230Z,68.57
2018-03-23T00:05:58.798Z,64.35
2018-03-23T00:07:05.026Z,70.60
2018-03-23T00:08:11.016Z,60.35
2018-03-23T00:09:18.338Z,64.65
2018-03-23T00:10:24.535Z,71.68
2018-03-23T00:11:29.732Z,77.50
2018-03-23T00:12:35.690Z,67.25
2018-03-23T00:13:42.316Z,63.42
2018-03-23T00:14:47.845Z,59.13
2018-03-23T00:15:53.350Z,61.40
2018-03-23T00:16:58.610Z,66.87
2018-03-23T00:18:03.879Z,78.78
2018-03-23T00:19:10.259Z,71.20
2018-03-23T00:20:15.610Z,69.43
2018-03-23T00:21:20.816Z,76.80
2018-03-23T00:22:27.460Z,75.15
2018-03-23T00:23:33.776Z,76.37
2018-03-23T00:24:40.879Z,81.50
2018-03-23T00:25:46.379Z,82.03
2018-03-23T00:26:52.272Z,80.80
2018-03-23T00:27:58.209Z,70.85
2018-03-23T00:29:04.682Z,74.03
2018-03-23T00:30:10.140Z,75.32
2018-03-23T00:31:15.149Z,74.07
2018-03-23T00:32:20.457Z,73.78
2018-03-23T00:33:25.793Z,83.05
2018-03-23T00:34:31.373Z,77.47
2018-03-23T00:35:37.084Z,81.90
2018-03-23T00:36:45.517Z,77.53
2018-03-23T00:37:51.252Z,77.53
2018-03-23T00:38:56.454Z,82.80
2018-03-23T00:40:02.109Z,89.97
2018-03-23T00:41:07.317Z,82.75
2018-03-23T00:42:12.647Z,76.07
2018-03-23T00:43:17.896Z,83.90
2018-03-23T00:44:22.984Z,83.28
2018-03-23T00:45:28.998Z,82.75
2018-03-23T00:46:34.144Z,86.50
2018-03-23T00:47:40.733Z,78.40
2018-03-23T00:48:46.156Z,78.50
2018-03-23T00:49:52.317Z,86.85
2018-03-23T00:50:57.508Z,75.45
2018-03-23T00:52:03.003Z,81.20
2018-03-23T00:53:08.220Z,80.68
2018-03-23T00:54:13.552Z,83.18
2018-03-23T00:55:18.905Z,78.93
2018-03-23T00:56:24.568Z,84.75
2018-03-23T00:57:29.828Z,86.95
2018-03-23T00:58:35.617Z,91.10
2018-03-23T00:59:41.388Z,77.67
2018-03-23T01:00:46.627Z,83.95
2018-03-23T01:01:54.169Z,90.00
2018-03-23T01:02:59.328Z,83.12
2018-03-23T01:04:05.015Z,81.65
2018-03-23T01:05:10.517Z,89.72
2018-03-23T01:06:16.413Z,83.80
2018-03-23T01:07:21.469Z,87.37
2018-03-23T01:08:27.046Z,90.30
2018-03-23T01:09:32.466Z,87.10
2018-03-23T01:10:38.370Z,91.25
2018-03-23T01:11:44.688Z,108.82
2018-03-23T01:12:49.832Z,99.82
2018-03-23T01:13:55.959Z,89.82
2018-03-23T01:15:01.163Z,92.15
2018-03-23T01:16:07.152Z,91.05
2018-03-23T01:17:12.466Z,84.97
2018-03-23T01:18:17.624Z,96.35
2018-03-23T01:19:22.992Z,85.75
2018-03-23T01:20:28.988Z,93.60
2018-03-23T01:21:34.263Z,93.70
2018-03-23T01:22:42.159Z,94.03
2018-03-23T01:23:48.050Z,87.40
2018-03-23T01:24:54.232Z,90.05
2018-03-23T01:25:59.593Z,81.72
2018-03-23T01:27:05.333Z,93.12
2018-03-23T01:28:11.483Z,91.47
2018-03-23T01:29:17.249Z,90.10
2018-03-23T01:30:23.581Z,97.10
2018-03-23T01:31:29.291Z,94.60
2018-03-23T01:32:34.412Z,82.47
2018-03-23T01:33:39.176Z,83.93
2018-03-23T01:34:44.993Z,88.35
2018-03-23T01:35:52.417Z,89.78
2018-03-23T01:37:00.730Z,84.97
2018-03-23T01:38:08.838Z,85.68
2018-03-23T01:39:15.718Z,89.78
2018-03-23T01:40:23.064Z,81.32
2018-03-23T01:41:30.539Z,82.32
2018-03-23T01:42:36.183Z,87.43
2018-03-23T01:43:42.226Z,82.07
2018-03-23T01:44:47.661Z,93.85
2018-03-23T01:45:54.414Z,93.22
2018-03-23T01:47:02.544Z,96.30
2018-03-23T01:48:08.110Z,83.53
2018-03-23T01:49:13.821Z,80.53
2018-03-23T01:50:19.701Z,90.03
2018-03-23T01:51:26.327Z,84.53
2018-03-23T01:52:33.623Z,88.55
2018-03-23T01:53:46.924Z,87.28
2018-03-23T01:54:52.522Z,88.43
2018-03-23T01:55:59.203Z,89.45
2018-03-23T01:57:04.562Z,88.00
2018-03-23T01:58:10.966Z,80.40
2018-03-23T01:59:17.350Z,85.85
2018-03-23T02:00:24.079Z,83.40
2018-03-23T02:01:32.067Z,86.87
2018-03-23T02:02:38.716Z,91.75
2018-03-23T02:03:46.210Z,81.53
2018-03-23T02:04:54.563Z,87.78
2018-03-23T02:06:01.509Z,90.85
2018-03-23T02:07:08.793Z,89.03
2018-03-23T02:08:13.988Z,83.50
2018-03-23T02:09:22.633Z,90.80
2018-03-23T02:10:27.297Z,81.10
2018-03-23T02:11:33.674Z,86.03
2018-03-23T02:12:39.473Z,87.28
2018-03-23T02:13:46.079Z,88.03
2018-03-23T02:14:50.836Z,91.63
2018-03-23T02:15:55.529Z,91.28
2018-03-23T02:17:00.251Z,85.90
2018-03-23T02:18:05.000Z,89.97
2018-03-23T02:19:09.587Z,90.72
2018-03-23T02:20:14.644Z,91.85
2018-03-23T02:21:19.406Z,82.65
2018-03-23T02:22:24.010Z,88.05
2018-03-23T02:23:30.434Z,96.07
2018-03-23T02:24:35.276Z,90.83
2018-03-23T02:25:40.618Z,82.93
2018-03-23T02:26:45.523Z,84.77
2018-03-23T02:27:51.124Z,86.15
2018-03-23T02:28:56.022Z,83.07
2018-03-23T02:30:00.944Z,90.37
2018-03-23T02:31:05.783Z,88.65
2018-03-23T02:32:10.330Z,79.60
2018-03-23T02:33:16.088Z,88.37
2018-03-23T02:34:20.844Z,85.72
2018-03-23T02:35:25.518Z,83.80
2018-03-23T02:36:30.961Z,85.10
2018-03-23T02:37:35.868Z,93.77
2018-03-23T02:38:42.112Z,85.72
2018-03-23T02:39:47.778Z,84.78
2018-03-23T02:40:52.781Z,85.00
2018-03-23T02:41:58.675Z,90.47
2018-03-23T02:43:03.280Z,80.40
2018-03-23T02:44:07.959Z,83.12
2018-03-23T02:45:13.213Z,86.80
2018-03-23T02:46:18.179Z,91.18
2018-03-23T02:47:22.677Z,83.03
2018-03-23T02:48:27.380Z,91.10
2018-03-23T02:49:32.090Z,91.63
2018-03-23T02:50:36.536Z,82.80
2018-03-23T02:51:40.969Z,85.80
2018-03-23T02:52:46.267Z,82.80
2018-03-23T02:53:51.169Z,99.75
2018-03-23T02:54:55.852Z,88.72
2018-03-23T02:56:00.413Z,92.65
2018-03-23T02:57:04.926Z,94.37
2018-03-23T02:58:09.392Z,87.60
2018-03-23T02:59:13.865Z,84.43
2018-03-23T03:00:23.366Z,92.43
2018-03-23T03:01:28.639Z,99.20
2018-03-23T03:02:33.911Z,97.50
2018-03-23T03:03:38.422Z,93.00
2018-03-23T03:04:43.109Z,105.05
2018-03-23T03:05:47.878Z,97.23
2018-03-23T03:06:52.505Z,98.10
2018-03-23T03:07:57.160Z,83.28
2018-03-23T03:09:01.880Z,86.18
2018-03-23T03:10:06.419Z,93.30
2018-03-23T03:11:10.941Z,92.82
2018-03-23T03:12:15.523Z,96.10
2018-03-23T03:13:20.210Z,97.65
2018-03-23T03:14:25.863Z,99.60
2018-03-23T03:15:30.332Z,85.43
2018-03-23T03:16:35.096Z,91.40
2018-03-23T03:17:39.685Z,93.82
2018-03-23T03:18:44.433Z,83.72
2018-03-23T03:19:48.784Z,84.43
2018-03-23T03:20:53.264Z,88.10
2018-03-23T03:21:58.054Z,83.57
2018-03-23T03:23:03.258Z,78.17
2018-03-23T03:24:07.602Z,81.87
2018-03-23T03:25:11.888Z,82.90
2018-03-23T03:26:17.299Z,81.57
2018-03-23T03:27:21.724Z,85.22
2018-03-23T03:28:27.203Z,86.15
2018-03-23T03:29:31.928Z,84.05
2018-03-23T03:30:36.503Z,73.50
2018-03-23T03:31:40.909Z,79.00
2018-03-23T03:32:46.839Z,78.53
2018-03-23T03:33:51.957Z,81.60
2018-03-23T03:34:56.775Z,80.22
2018-03-23T03:36:01.428Z,79.53
2018-03-23T03:37:05.919Z,90.57
2018-03-23T03:38:11.468Z,81.35
2018-03-23T03:39:16.590Z,76.05
2018-03-23T03:40:22.070Z,84.15
2018-03-23T03:41:26.454Z,75.77
2018-03-23T03:42:32.039Z,74.20
2018-03-23T03:43:36.431Z,74.90
2018-03-23T03:44:40.926Z,72.40
2018-03-23T03:45:45.448Z,65.43
2018-03-23T03:46:50.733Z,69.50
2018-03-23T03:47:55.966Z,76.10
2018-03-23T03:49:01.397Z,67.97
2018-03-23T03:50:06.660Z,132.63
2018-03-23T03:51:11.168Z,110.07
2018-03-23T03:52:15.645Z,77.95
2018-03-23T03:53:20.483Z,67.68
2018-03-23T03:54:25.420Z,75.68
2018-03-23T03:55:29.824Z,67.18
2018-03-23T03:56:34.679Z,71.73
2018-03-23T03:57:39.162Z,80.15
2018-03-23T03:58:43.681Z,73.03
2018-03-23T03:59:48.998Z,73.20
2018-03-23T04:00:54.461Z,68.95
2018-03-23T04:01:59.128Z,81.55
2018-03-23T04:03:03.638Z,73.40
2018-03-23T04:04:09.126Z,74.93
2018-03-23T04:05:13.520Z,68.53
2018-03-23T04:06:18.082Z,71.43
2018-03-23T04:07:23.533Z,71.07
2018-03-23T04:08:27.881Z,69.07
2018-03-23T04:09:32.953Z,74.60
2018-03-23T04:10:37.425Z,72.57
2018-03-23T04:11:41.893Z,72.97
2018-03-23T04:12:46.308Z,72.20
2018-03-23T04:13:50.687Z,85.28
2018-03-23T04:14:55.944Z,73.37
2018-03-23T04:16:00.331Z,81.70
2018-03-23T04:17:05.473Z,81.60
2018-03-23T04:18:09.927Z,85.82
2018-03-23T04:19:14.574Z,88.68
2018-03-23T04:20:20.410Z,101.10
2018-03-23T04:22:44.278Z,108.17
2018-03-23T04:23:49.043Z,105.40
2018-03-23T04:24:54.457Z,99.25
2018-03-23T04:25:59.055Z,115.50
2018-03-23T04:27:04.326Z,111.62
2018-03-23T04:28:09.355Z,116.13
2018-03-23T04:29:13.840Z,111.93
2018-03-23T04:30:18.426Z,122.30
2018-03-23T04:31:23.850Z,128.75
2018-03-23T04:32:28.255Z,137.18
2018-03-23T04:33:33.144Z,141.82
2018-03-23T04:34:37.693Z,147.18
2018-03-23T04:35:42.206Z,128.85
2018-03-23T04:36:46.660Z,133.00
2018-03-23T04:37:51.955Z,139.65
2018-03-23T04:38:56.457Z,119.95
2018-03-23T04:40:00.995Z,137.50
2018-03-23T04:41:06.396Z,135.15
2018-03-23T04:42:10.787Z,126.03
2018-03-23T04:43:16.006Z,130.30
2018-03-23T04:44:20.673Z,123.37
2018-03-23T04:45:26.157Z,121.25
2018-03-23T04:46:30.801Z,116.68
2018-03-23T04:47:35.264Z,115.85
2018-03-23T04:48:40.584Z,118.15
2018-03-23T04:49:45.454Z,105.93
2018-03-23T04:50:49.954Z,109.93
2018-03-23T04:51:54.425Z,109.55
2018-03-23T04:52:58.829Z,107.72
2018-03-23T04:54:03.224Z,113.25
2018-03-23T04:55:08.965Z,96.28
2018-03-23T04:56:14.207Z,104.70
2018-03-23T04:57:18.808Z,105.07
2018-03-23T04:58:24.022Z,104.45
2018-03-23T04:59:28.507Z,101.07
2018-03-23T05:00:33.382Z,103.47
2018-03-23T05:01:37.909Z,106.50
2018-03-23T05:02:42.338Z,117.47
2018-03-23T05:03:46.893Z,100.65
2018-03-23T05:04:52.219Z,103.50
2018-03-23T05:05:57.644Z,107.10
2018-03-23T05:07:02.132Z,106.32
2018-03-23T05:08:06.614Z,99.78
2018-03-23T05:09:12.081Z,105.90
2018-03-23T05:10:17.307Z,97.15
2018-03-23T05:11:21.776Z,106.45
2018-03-23T05:12:26.325Z,90.22
2018-03-23T05:13:30.734Z,88.12
2018-03-23T05:14:36.304Z,93.07
2018-03-23T05:15:41.079Z,83.37
2018-03-23T05:16:45.626Z,86.45
2018-03-23T05:17:50.465Z,97.85
2018-03-23T05:18:55.811Z,84.70
2018-03-23T05:20:00.656Z,81.12
2018-03-23T05:21:05.512Z,81.72
2018-03-23T05:22:10.456Z,72.45
2018-03-23T05:23:15.842Z,68.45
2018-03-23T05:24:21.230Z,71.40
2018-03-23T05:25:28.773Z,73.68
2018-03-23T05:26:33.323Z,60.92
2018-03-23T05:27:38.025Z,72.12
2018-03-23T05:28:44.109Z,62.38
2018-03-23T05:29:49.190Z,67.18
2018-03-23T05:30:53.897Z,62.65
2018-03-23T05:32:00.527Z,73.32
2018-03-23T05:33:04.986Z,64.82
2018-03-23T05:34:09.762Z,65.90
2018-03-23T05:35:14.427Z,62.45
2018-03-23T05:36:18.899Z,69.40
2018-03-23T05:37:23.893Z,51.13
2018-03-23T05:38:29.540Z,63.38
2018-03-23T05:39:34.519Z,54.78
2018-03-23T05:40:39.447Z,60.40
2018-03-23T05:41:44.247Z,60.75
2018-03-23T05:42:48.722Z,54.08
2018-03-23T05:43:53.441Z,52.30
2018-03-23T05:44:58.538Z,58.47
2018-03-23T05:46:03.312Z,47.15
2018-03-23T05:47:09.036Z,50.72
2018-03-23T05:48:14.352Z,52.38
2018-03-23T05:49:20.114Z,50.63
2018-03-23T05:50:26.054Z,60.42
2018-03-23T05:51:32.536Z,49.05
2018-03-23T05:52:40.381Z,52.75
2018-03-23T05:53:44.956Z,54.95
2018-03-23T05:54:53.809Z,47.88
2018-03-23T05:56:00.873Z,50.35
2018-03-23T05:57:10.376Z,47.83
2018-03-23T05:58:17.856Z,47.83
2018-03-23T05:59:24.937Z,43.13
2018-03-23T06:00:32.275Z,47.27
2018-03-23T06:01:38.251Z,51.95
2018-03-23T06:02:47.473Z,50.40
2018-03-23T06:03:55.922Z,52.40
2018-03-23T06:05:02.655Z,46.17
2018-03-23T06:06:08.645Z,49.35
2018-03-23T06:07:14.617Z,50.30
2018-03-23T06:08:22.001Z,44.67
2018-03-23T06:09:28.491Z,54.05
2018-03-23T06:10:34.955Z,57.55
2018-03-23T06:11:43.758Z,79.72
2018-03-23T06:12:53.850Z,54.92
2018-03-23T06:13:59.871Z,54.90
2018-03-23T06:15:05.319Z,53.30
2018-03-23T06:16:11.335Z,47.55
2018-03-23T06:17:16.693Z,57.42
2018-03-23T06:18:22.385Z,46.70
2018-03-23T06:19:28.112Z,59.30
2018-03-23T06:20:36.468Z,51.40
2018-03-23T06:21:42.036Z,54.72
2018-03-23T06:22:47.911Z,47.80
2018-03-23T06:23:54.558Z,50.12
2018-03-23T06:25:00.742Z,46.10
2018-03-23T06:26:05.960Z,56.63
2018-03-23T06:27:11.190Z,55.45
2018-03-23T06:28:16.753Z,57.20
2018-03-23T06:29:22.292Z,47.45
2018-03-23T06:30:27.794Z,55.05
2018-03-23T06:31:39.669Z,53.20
2018-03-23T06:32:58.799Z,56.28
2018-03-23T06:34:05.105Z,54.13
2018-03-23T06:35:10.436Z,45.50
2018-03-23T06:36:16.826Z,52.17
2018-03-23T06:37:22.588Z,50.15
2018-03-23T06:38:29.167Z,53.05
2018-03-23T06:39:35.000Z,47.53
2018-03-23T06:40:41.964Z,55.10
2018-03-23T06:41:47.753Z,46.20
2018-03-23T06:42:52.985Z,49.40
2018-03-23T06:43:58.422Z,47.40
2018-03-23T06:45:03.759Z,50.27
2018-03-23T06:46:09.415Z,53.25
2018-03-23T06:47:14.698Z,52.17
2018-03-23T06:48:20.195Z,48.60
2018-03-23T06:49:26.005Z,57.80
2018-03-23T06:50:32.135Z,56.37
2018-03-23T06:51:38.064Z,53.87
2018-03-23T06:52:44.321Z,49.13
2018-03-23T06:53:49.856Z,55.05
2018-03-23T06:54:55.097Z,52.08
2018-03-23T06:56:00.176Z,49.47
2018-03-23T06:57:05.548Z,53.05
2018-03-23T06:58:10.931Z,44.60
2018-03-23T06:59:17.040Z,52.00
2018-03-23T07:00:22.527Z,53.60
2018-03-23T07:01:28.824Z,53.45
2018-03-23T07:02:34.170Z,45.05
2018-03-23T07:03:42.513Z,47.33
2018-03-23T07:04:48.192Z,46.20
2018-03-23T07:05:53.606Z,49.17
2018-03-23T07:07:00.121Z,50.35
2018-03-23T07:08:06.272Z,44.78
2018-03-23T07:09:12.951Z,55.08
2018-03-23T07:10:18.956Z,53.60
2018-03-23T07:11:26.502Z,48.90
2018-03-23T07:12:33.490Z,52.62
2018-03-23T07:13:39.611Z,52.10
2018-03-23T07:14:45.085Z,52.00
2018-03-23T07:15:51.210Z,52.62
2018-03-23T07:16:56.659Z,51.10
2018-03-23T07:18:04.092Z,51.45
2018-03-23T07:19:09.577Z,59.42
2018-03-23T07:20:15.133Z,46.47
2018-03-23T07:21:20.787Z,43.60
2018-03-23T07:22:26.053Z,47.15
2018-03-23T07:23:31.979Z,46.83
2018-03-23T07:24:37.225Z,43.90
2018-03-23T07:25:43.991Z,56.00
2018-03-23T07:26:50.270Z,52.20
2018-03-23T07:27:55.505Z,49.13
2018-03-23T07:29:01.828Z,49.60
2018-03-23T07:30:09.382Z,50.75
2018-03-23T07:31:15.647Z,52.62
2018-03-23T07:32:22.958Z,55.00
2018-03-23T07:33:32.688Z,48.70
2018-03-23T07:34:40.999Z,44.55
2018-03-23T07:35:46.963Z,45.95
2018-03-23T07:36:53.127Z,48.50
2018-03-23T07:37:58.573Z,47.65
2018-03-23T07:39:04.538Z,47.90
2018-03-23T07:40:09.715Z,41.95
2018-03-23T07:41:16.099Z,38.40
2018-03-23T07:42:30.617Z,47.92
2018-03-23T07:43:36.276Z,59.50
2018-03-23T07:44:42.650Z,54.50
2018-03-23T07:45:49.846Z,49.00
2018-03-23T07:46:56.218Z,46.00
2018-03-23T07:48:01.632Z,42.92
2018-03-23T07:49:06.991Z,39.60
2018-03-23T07:50:12.290Z,48.03
2018-03-23T07:51:18.776Z,46.17
2018-03-23T07:52:24.268Z,38.30
2018-03-23T07:53:29.544Z,43.13
2018-03-23T07:54:36.820Z,42.45
2018-03-23T07:55:44.598Z,40.35
2018-03-23T07:56:51.870Z,43.08
2018-03-23T07:57:58.927Z,42.40
2018-03-23T07:59:07.463Z,41.17
2018-03-23T08:00:14.280Z,49.65
2018-03-23T08:01:20.255Z,41.30
2018-03-23T08:02:27.486Z,56.53
2018-03-23T08:03:33.978Z,50.05
2018-03-23T08:04:41.875Z,42.47
2018-03-23T08:05:48.265Z,46.25
2018-03-23T08:06:54.497Z,46.37
2018-03-23T08:08:00.944Z,43.85
2018-03-23T08:09:06.046Z,56.53
2018-03-23T08:10:12.640Z,57.10
2018-03-23T08:11:19.756Z,51.65
2018-03-23T08:12:25.170Z,45.50
2018-03-23T08:13:31.952Z,41.58
2018-03-23T08:14:38.056Z,44.45
2018-03-23T08:15:46.925Z,46.25
2018-03-23T08:16:54.634Z,38.95
2018-03-23T08:18:02.042Z,44.08
2018-03-23T08:19:08.139Z,45.38
2018-03-23T08:20:19.297Z,39.53
2018-03-23T08:21:25.958Z,41.28
2018-03-23T08:22:32.174Z,43.95
2018-03-23T08:23:37.512Z,34.30
2018-03-23T08:24:44.093Z,36.40
2018-03-23T08:25:49.461Z,36.65
2018-03-23T08:26:57.529Z,41.95
2018-03-23T08:28:05.249Z,35.63
2018-03-23T08:29:11.275Z,40.72
2018-03-23T08:30:16.802Z,45.03
2018-03-23T08:31:22.055Z,46.40
2018-03-23T08:32:28.369Z,42.88
2018-03-23T08:33:35.431Z,34.63
2018-03-23T08:34:41.716Z,41.40
2018-03-23T08:35:47.295Z,39.05
2018-03-23T08:36:52.370Z,40.03
2018-03-23T08:37:59.709Z,38.90
2018-03-23T08:39:05.548Z,32.35
2018-03-23T08:40:10.943Z,38.45
2018-03-23T08:41:17.138Z,41.10
2018-03-23T08:42:22.415Z,216.75
2018-03-23T08:43:28.291Z,52.38
2018-03-23T08:44:34.387Z,34.25
2018-03-23T08:45:41.000Z,33.80
2018-03-23T08:46:47.175Z,31.85
2018-03-23T08:47:52.437Z,36.17
2018-03-23T08:48:57.614Z,36.15
2018-03-23T08:50:02.804Z,30.42
2018-03-23T08:51:08.200Z,33.90
2018-03-23T08:52:13.809Z,29.12
2018-03-23T08:53:21.207Z,29.40
2018-03-23T08:54:26.334Z,36.20
2018-03-23T08:55:31.551Z,31.55
2018-03-23T08:56:36.730Z,32.20
2018-03-23T08:57:43.169Z,41.55
2018-03-23T08:58:48.341Z,32.85
2018-03-23T08:59:54.677Z,34.20
2018-03-23T09:01:00.000Z,41.83
2018-03-23T09:02:06.037Z,31.60
2018-03-23T09:03:11.456Z,28.52
2018-03-23T09:04:16.654Z,37.75
2018-03-23T09:05:21.683Z,38.25
2018-03-23T09:06:26.845Z,31.70
2018-03-23T09:07:32.002Z,35.63
2018-03-23T09:08:40.777Z,41.72
2018-03-23T09:09:49.925Z,36.38
2018-03-23T09:10:56.614Z,32.45
2018-03-23T09:12:03.597Z,35.88
2018-03-23T09:13:09.860Z,40.90
2018-03-23T09:14:17.082Z,33.90
2018-03-23T09:15:24.717Z,30.40
2018-03-23T09:16:34.634Z,34.50
2018-03-23T09:17:41.094Z,28.80
2018-03-23T09:18:47.322Z,28.55
2018-03-23T09:19:54.523Z,31.08
2018-03-23T09:21:00.070Z,29.52
2018-03-23T09:22:09.145Z,31.30
2018-03-23T09:23:14.678Z,31.80
2018-03-23T09:24:21.102Z,34.97
2018-03-23T09:25:27.564Z,36.10
2018-03-23T09:26:33.505Z,38.43
2018-03-23T09:27:42.611Z,33.70
2018-03-23T09:28:48.731Z,33.95
2018-03-23T09:29:56.554Z,31.98
2018-03-23T09:31:03.316Z,34.60
2018-03-23T09:32:14.623Z,30.02
2018-03-23T09:33:24.386Z,36.20
2018-03-23T09:34:32.977Z,40.20
2018-03-23T09:35:39.665Z,40.17
2018-03-23T09:36:46.977Z,29.67
2018-03-23T09:37:52.485Z,31.30
2018-03-23T09:38:58.286Z,30.40
2018-03-23T09:40:04.086Z,31.20
2018-03-23T09:41:10.027Z,28.75
2018-03-23T09:42:15.662Z,34.28
2018-03-23T09:43:28.963Z,33.05
2018-03-23T09:44:38.058Z,31.15
2018-03-23T09:45:45.864Z,32.15
2018-03-23T09:46:52.467Z,32.30
2018-03-23T09:47:57.799Z,34.13
2018-03-23T09:49:03.156Z,32.22
2018-03-23T09:50:10.355Z,33.38
2018-03-23T09:51:15.630Z,29.40
2018-03-23T09:52:20.799Z,35.28
2018-03-23T09:53:26.092Z,29.55
2018-03-23T09:54:31.356Z,31.87
2018-03-23T09:55:36.976Z,39.65
2018-03-23T09:56:42.181Z,29.60
2018-03-23T09:57:47.904Z,31.60
2018-03-23T09:58:52.998Z,33.78
2018-03-23T09:59:59.265Z,36.80
2018-03-23T10:01:07.121Z,34.42
2018-03-23T10:02:12.296Z,35.40
2018-03-23T10:03:18.514Z,33.95
2018-03-23T10:04:23.534Z,41.65
2018-03-23T10:05:28.688Z,36.83
2018-03-23T10:06:34.228Z,34.97
2018-03-23T10:07:39.301Z,25.45
2018-03-23T10:08:45.605Z,32.08
2018-03-23T10:09:50.748Z,31.87
2018-03-23T10:10:56.186Z,30.73
2018-03-23T10:12:01.340Z,29.45
2018-03-23T10:13:06.336Z,35.20
2018-03-23T10:14:11.251Z,33.05
2018-03-23T10:15:16.199Z,28.57
2018-03-23T10:16:21.126Z,30.37
2018-03-23T10:17:26.268Z,33.50
2018-03-23T10:18:31.669Z,29.15
2018-03-23T10:19:37.045Z,26.17
2018-03-23T10:20:43.340Z,27.85
2018-03-23T10:21:49.006Z,26.10
2018-03-23T10:22:54.574Z,27.02
2018-03-23T10:24:00.008Z,31.52
2018-03-23T10:25:05.581Z,33.47
2018-03-23T10:26:10.933Z,32.87
2018-03-23T10:27:16.420Z,30.90
2018-03-23T10:28:22.798Z,26.83
2018-03-23T10:29:29.391Z,30.98
2018-03-23T10:30:35.198Z,31.25
2018-03-23T10:31:41.135Z,27.55
2018-03-23T10:32:47.100Z,34.33
2018-03-23T10:33:52.850Z,37.05
2018-03-23T10:34:58.310Z,31.67
2018-03-23T10:36:04.159Z,28.55
2018-03-23T10:37:09.723Z,29.35
2018-03-23T10:38:15.806Z,22.30
2018-03-23T10:39:21.630Z,30.42
2018-03-23T10:40:27.891Z,26.35
2018-03-23T10:41:33.395Z,32.08
2018-03-23T10:42:40.319Z,30.58
2018-03-23T10:43:45.691Z,28.12
2018-03-23T10:44:52.525Z,31.48
2018-03-23T10:45:57.915Z,36.70
2018-03-23T10:47:03.934Z,29.35
2018-03-23T10:48:09.247Z,31.85
2018-03-23T10:49:14.662Z,39.90
2018-03-23T10:50:20.362Z,29.97
2018-03-23T10:51:25.813Z,34.72
2018-03-23T10:52:30.879Z,40.85
2018-03-23T10:53:36.697Z,35.08
2018-03-23T10:54:44.200Z,32.20
2018-03-23T10:55:49.812Z,33.95
2018-03-23T10:56:55.269Z,31.42
2018-03-23T10:58:01.627Z,30.92
2018-03-23T10:59:06.824Z,30.20
2018-03-23T11:00:13.616Z,26.50
2018-03-23T11:01:22.836Z,33.55
2018-03-23T11:02:32.142Z,29.50
2018-03-23T11:03:41.289Z,28.90
2018-03-23T11:04:46.528Z,26.52
2018-03-23T11:05:51.831Z,26.40
2018-03-23T11:06:57.007Z,36.10
2018-03-23T11:08:03.169Z,29.45
2018-03-23T11:09:10.608Z,27.60
2018-03-23T11:10:16.841Z,33.15
2018-03-23T11:11:22.143Z,29.33
2018-03-23T11:12:27.725Z,28.52
2018-03-23T11:13:32.932Z,29.45
2018-03-23T11:14:37.983Z,27.52
2018-03-23T11:15:44.017Z,32.42
2018-03-23T11:16:49.085Z,25.73
2018-03-23T11:17:55.000Z,24.00
2018-03-23T11:19:00.107Z,29.30
2018-03-23T11:20:05.417Z,30.20
2018-03-23T11:21:13.921Z,31.67
2018-03-23T11:22:19.490Z,38.63
2018-03-23T11:23:24.861Z,28.02
2018-03-23T11:24:30.538Z,30.73
2018-03-23T11:25:36.435Z,29.27
2018-03-23T11:26:42.997Z,23.90
2018-03-23T11:27:48.709Z,26.27
2018-03-23T11:28:54.089Z,29.63
2018-03-23T11:29:59.150Z,27.10
2018-03-23T11:31:03.981Z,36.90
2018-03-23T11:32:08.503Z,30.00
2018-03-23T11:33:13.561Z,32.72
2018-03-23T11:34:18.763Z,26.85
2018-03-23T11:35:24.797Z,24.30
2018-03-23T11:36:30.566Z,29.58
2018-03-23T11:37:37.283Z,33.10
2018-03-23T11:38:46.837Z,58.92
2018-03-23T11:39:53.576Z,38.13
2018-03-23T11:40:59.456Z,26.95
2018-03-23T11:42:04.783Z,26.73
2018-03-23T11:43:11.686Z,25.17
2018-03-23T11:44:16.752Z,25.23
2018-03-23T11:45:22.697Z,25.45
2018-03-23T11:46:27.618Z,28.10
2018-03-23T11:47:32.542Z,21.40
2018-03-23T11:48:38.522Z,24.25
2018-03-23T11:49:47.215Z,21.83
2018-03-23T11:50:56.188Z,25.92
2018-03-23T11:52:04.422Z,23.45
2018-03-23T11:53:09.570Z,33.53
2018-03-23T11:54:17.707Z,27.92
2018-03-23T11:55:23.838Z,24.98
2018-03-23T11:56:29.183Z,26.40
2018-03-23T11:57:35.222Z,22.03
2018-03-23T11:58:43.465Z,22.73
2018-03-23T11:59:52.248Z,29.63
2018-03-23T12:00:58.723Z,34.03
2018-03-23T12:02:04.188Z,46.60
2018-03-23T12:03:10.468Z,38.47
2018-03-23T12:04:17.218Z,30.95
2018-03-23T12:05:23.862Z,24.60
2018-03-23T12:06:28.910Z,26.52
2018-03-23T12:07:35.404Z,28.20
2018-03-23T12:08:41.465Z,31.20
2018-03-23T12:09:47.419Z,23.87
2018-03-23T12:10:52.702Z,25.92
2018-03-23T12:11:58.908Z,61.78
2018-03-23T12:13:06.220Z,73.40
2018-03-23T12:14:12.204Z,119.60
2018-03-23T12:15:17.382Z,44.25
2018-03-23T12:16:23.173Z,34.80
2018-03-23T12:17:28.664Z,29.37
2018-03-23T12:18:35.300Z,27.70
2018-03-23T12:19:41.495Z,23.20
2018-03-23T12:20:47.021Z,28.50
2018-03-23T12:21:53.200Z,23.92
2018-03-23T12:22:58.735Z,29.83
2018-03-23T12:24:04.403Z,21.83
2018-03-23T12:25:11.610Z,24.60
2018-03-23T12:26:17.887Z,23.27
2018-03-23T12:27:24.805Z,27.60
2018-03-23T12:28:30.329Z,21.92
2018-03-23T12:29:36.063Z,24.87
2018-03-23T12:30:42.704Z,23.83
2018-03-23T12:31:48.063Z,23.62
2018-03-23T12:32:53.367Z,22.52
2018-03-23T12:33:59.018Z,22.52
2018-03-23T12:35:04.549Z,19.60
2018-03-23T12:36:10.013Z,24.85
2018-03-23T12:37:15.760Z,18.98
2018-03-23T12:38:21.083Z,26.05
2018-03-23T12:39:26.482Z,22.13
2018-03-23T12:40:32.173Z,21.45
2018-03-23T12:41:37.594Z,19.80
2018-03-23T12:42:44.858Z,26.17
2018-03-23T12:43:50.155Z,20.85
2018-03-23T12:44:55.546Z,22.48
2018-03-23T12:46:01.804Z,17.67
2018-03-23T12:47:08.000Z,20.77
2018-03-23T12:48:13.330Z,20.10
2018-03-23T12:49:18.505Z,18.17
2018-03-23T12:50:24.899Z,17.73
2018-03-23T12:51:30.144Z,24.70
2018-03-23T12:52:35.462Z,19.12
2018-03-23T12:53:41.665Z,19.37
2018-03-23T12:54:46.880Z,17.33
2018-03-23T12:55:51.996Z,19.73
2018-03-23T12:56:57.018Z,21.98
2018-03-23T12:58:02.727Z,18.27
2018-03-23T12:59:07.806Z,21.50
2018-03-23T13:00:13.645Z,18.70
2018-03-23T13:01:19.426Z,20.90
2018-03-23T13:02:24.614Z,16.00
2018-03-23T13:03:30.123Z,19.25
2018-03-23T13:04:35.230Z,18.00
2018-03-23T13:05:41.425Z,12.52
2018-03-23T13:06:46.742Z,15.95
2018-03-23T13:07:51.872Z,22.10
2018-03-23T13:08:57.040Z,22.17
2018-03-23T13:10:03.361Z,20.45
2018-03-23T13:11:08.741Z,17.60
2018-03-23T13:12:14.433Z,18.92
2018-03-23T13:13:19.472Z,20.83
2018-03-23T13:14:25.937Z,14.90
2018-03-23T13:15:31.218Z,19.00
2018-03-23T13:16:36.886Z,17.92
2018-03-23T13:17:44.199Z,18.67
2018-03-23T13:18:49.797Z,17.40
2018-03-23T13:19:55.222Z,13.45
2018-03-23T13:21:01.891Z,18.10
2018-03-23T13:22:07.425Z,22.40
2018-03-23T13:23:12.573Z,21.42
2018-03-23T13:24:18.626Z,18.55
2018-03-23T13:25:24.682Z,16.05
2018-03-23T13:26:31.048Z,16.90
2018-03-23T13:27:36.644Z,21.17
2018-03-23T13:28:45.287Z,16.70
2018-03-23T13:29:50.813Z,17.48
2018-03-23T13:30:57.288Z,18.10
2018-03-23T13:32:03.383Z,14.03
2018-03-23T13:33:08.927Z,18.10
2018-03-23T13:34:14.106Z,17.00
2018-03-23T13:35:19.344Z,22.45
2018-03-23T13:36:24.492Z,15.30
2018-03-23T13:37:30.551Z,23.58
2018-03-23T13:38:35.776Z,16.55
2018-03-23T13:39:41.815Z,16.10
2018-03-23T13:40:46.853Z,27.67
2018-03-23T13:41:52.418Z,17.85
2018-03-23T13:42:58.525Z,19.65
2018-03-23T13:44:03.714Z,21.85
2018-03-23T13:45:09.053Z,17.20
2018-03-23T13:46:14.344Z,22.67
2018-03-23T13:47:20.360Z,17.35
2018-03-23T13:48:25.701Z,15.07
2018-03-23T13:49:31.404Z,22.62
2018-03-23T13:50:36.667Z,16.00
2018-03-23T13:51:42.343Z,15.73
2018-03-23T13:52:48.513Z,15.82
2018-03-23T13:53:53.995Z,22.42
2018-03-23T13:54:59.754Z,21.75
2018-03-23T13:56:07.036Z,16.40
2018-03-23T13:57:14.082Z,17.25
2018-03-23T13:58:19.996Z,28.38
2018-03-23T13:59:29.991Z,34.92
2018-03-23T14:00:40.763Z,20.08
2018-03-23T14:01:46.296Z,18.77
2018-03-23T14:02:52.621Z,19.50
2018-03-23T14:03:58.035Z,18.73
2018-03-23T14:05:03.308Z,23.33
2018-03-23T14:06:09.025Z,22.57
2018-03-23T14:07:14.218Z,18.35
2018-03-23T14:08:20.258Z,18.70